sensor_id;sensor_type;location;lat;lon;timestamp;pressure;altitude;pressure_sealevel;temperature;humidity
9229;BME280;4649;42.644;23.284;2022-10-31T00:02:00;93522.66;;;16.52;46.71
9229;BME280;4649;42.644;23.284;2022-10-31T00:04:38;93538.16;;;16.63;47.07
9229;BME280;4649;42.644;23.284;2022-10-31T00:07:07;93471.25;;;16.14;47.58
9229;BME280;4649;42.644;23.284;2022-10-31T00:09:44;93496.13;;;16.29;47.48
9229;BME280;4649;42.644;23.284;2022-10-31T00:12:11;93417.06;;;15.82;47.15
9229;BME280;4649;42.644;23.284;2022-10-31T00:14:38;93393.22;;;15.64;47.29
9229;BME280;4649;42.644;23.284;2022-10-31T00:17:05;93532.97;;;16.59;47.69
9229;BME280;4649;42.644;23.284;2022-10-31T00:19:35;93341.53;;;15.34;47.54
9229;BME280;4649;42.644;23.284;2022-10-31T00:22:03;93375.53;;;15.70;47.40
9229;BME280;4649;42.644;23.284;2022-10-31T00:24:31;93498.97;;;16.42;47.62
9229;BME280;4649;42.644;23.284;2022-10-31T00:26:58;93548.34;;;16.62;47.35
9229;BME280;4649;42.644;23.284;2022-10-31T00:29:26;93493.19;;;16.27;47.68
9229;BME280;4649;42.644;23.284;2022-10-31T00:31:56;93389.91;;;15.52;47.84
9229;BME280;4649;42.644;23.284;2022-10-31T00:34:42;93528.56;;;16.56;48.50
9229;BME280;4649;42.644;23.284;2022-10-31T00:37:11;93402.38;;;15.48;48.70
9229;BME280;4649;42.644;23.284;2022-10-31T00:39:40;93527.75;;;16.43;48.51
9229;BME280;4649;42.644;23.284;2022-10-31T00:42:14;93424.88;;;15.72;48.59
9229;BME280;4649;42.644;23.284;2022-10-31T00:44:42;93531.22;;;16.44;49.68
9229;BME280;4649;42.644;23.284;2022-10-31T00:47:15;93434.56;;;15.91;48.58
9229;BME280;4649;42.644;23.284;2022-10-31T00:49:46;93419.88;;;15.76;48.51
9229;BME280;4649;42.644;23.284;2022-10-31T00:52:14;93469.09;;;16.07;48.52
9229;BME280;4649;42.644;23.284;2022-10-31T00:54:44;93532.91;;;16.47;48.75
9229;BME280;4649;42.644;23.284;2022-10-31T00:57:11;93335.00;;;15.19;48.79
9229;BME280;4649;42.644;23.284;2022-10-31T00:59:43;93442.47;;;15.95;48.97
9229;BME280;4649;42.644;23.284;2022-10-31T01:02:10;93485.78;;;16.22;48.71
9229;BME280;4649;42.644;23.284;2022-10-31T01:04:41;93509.13;;;16.42;48.50
9229;BME280;4649;42.644;23.284;2022-10-31T01:07:14;93520.66;;;16.53;48.93
9229;BME280;4649;42.644;23.284;2022-10-31T01:09:44;93385.03;;;15.64;48.83
9229;BME280;4649;42.644;23.284;2022-10-31T01:12:12;93419.59;;;15.80;49.04
9229;BME280;4649;42.644;23.284;2022-10-31T01:14:43;93447.47;;;16.09;48.50
9229;BME280;4649;42.644;23.284;2022-10-31T01:17:14;93359.72;;;15.45;48.67
9229;BME280;4649;42.644;23.284;2022-10-31T01:19:42;93498.00;;;16.40;49.04
9229;BME280;4649;42.644;23.284;2022-10-31T01:22:12;93543.38;;;16.61;49.33
9229;BME280;4649;42.644;23.284;2022-10-31T01:24:40;93548.94;;;16.55;48.83
9229;BME280;4649;42.644;23.284;2022-10-31T01:27:08;93354.34;;;15.16;49.58
9229;BME280;4649;42.644;23.284;2022-10-31T01:29:36;93545.03;;;16.51;49.71
9229;BME280;4649;42.644;23.284;2022-10-31T01:32:05;93447.59;;;15.80;49.33
9229;BME280;4649;42.644;23.284;2022-10-31T01:34:36;93486.38;;;16.15;50.24
9229;BME280;4649;42.644;23.284;2022-10-31T01:37:04;93334.97;;;15.01;50.21
9229;BME280;4649;42.644;23.284;2022-10-31T01:39:35;93376.69;;;15.38;50.90
9229;BME280;4649;42.644;23.284;2022-10-31T01:42:02;93546.22;;;16.55;50.15
9229;BME280;4649;42.644;23.284;2022-10-31T01:44:55;93545.09;;;16.64;50.12
9229;BME280;4649;42.644;23.284;2022-10-31T01:47:40;93547.75;;;16.69;50.25
9229;BME280;4649;42.644;23.284;2022-10-31T01:50:26;93542.88;;;16.81;49.35
9229;BME280;4649;42.644;23.284;2022-10-31T01:52:56;93387.56;;;15.80;49.39
9229;BME280;4649;42.644;23.284;2022-10-31T01:55:30;93438.31;;;16.07;49.43
9229;BME280;4649;42.644;23.284;2022-10-31T01:58:03;93348.25;;;15.52;49.08
9229;BME280;4649;42.644;23.284;2022-10-31T02:00:31;93518.59;;;16.59;50.01
9229;BME280;4649;42.644;23.284;2022-10-31T02:03:00;93528.19;;;16.65;50.33
9229;BME280;4649;42.644;23.284;2022-10-31T02:05:29;93355.16;;;15.53;51.22
9229;BME280;4649;42.644;23.284;2022-10-31T02:07:58;93343.81;;;15.49;51.28
9229;BME280;4649;42.644;23.284;2022-10-31T02:10:30;93439.63;;;16.19;51.67
9229;BME280;4649;42.644;23.284;2022-10-31T02:13:00;93533.22;;;16.93;50.10
9229;BME280;4649;42.644;23.284;2022-10-31T02:15:28;93507.72;;;16.72;50.48
9229;BME280;4649;42.644;23.284;2022-10-31T02:17:56;93519.94;;;16.84;50.30
9229;BME280;4649;42.644;23.284;2022-10-31T02:20:27;93528.81;;;16.90;50.39
9229;BME280;4649;42.644;23.284;2022-10-31T02:26:14;93553.03;;;16.99;49.48
9229;BME280;4649;42.644;23.284;2022-10-31T02:31:55;93547.56;;;16.99;50.86
9229;BME280;4649;42.644;23.284;2022-10-31T02:34:31;93411.31;;;16.03;50.27
9229;BME280;4649;42.644;23.284;2022-10-31T02:37:06;93443.50;;;16.10;50.96
9229;BME280;4649;42.644;23.284;2022-10-31T02:39:42;93562.97;;;16.83;50.08
9229;BME280;4649;42.644;23.284;2022-10-31T02:42:16;93570.88;;;16.68;50.44
9229;BME280;4649;42.644;23.284;2022-10-31T02:44:51;93572.50;;;16.58;51.43
9229;BME280;4649;42.644;23.284;2022-10-31T02:47:26;93581.72;;;16.55;50.89
9229;BME280;4649;42.644;23.284;2022-10-31T02:49:57;93439.97;;;15.55;51.49
9229;BME280;4649;42.644;23.284;2022-10-31T02:52:28;93418.84;;;15.37;51.24
9229;BME280;4649;42.644;23.284;2022-10-31T02:54:57;93461.44;;;15.64;51.62
9229;BME280;4649;42.644;23.284;2022-10-31T02:57:27;93516.97;;;15.90;53.22
9229;BME280;4649;42.644;23.284;2022-10-31T02:59:59;93556.88;;;16.17;52.46
9229;BME280;4649;42.644;23.284;2022-10-31T03:02:51;93566.94;;;16.27;52.42
9229;BME280;4649;42.644;23.284;2022-10-31T03:05:37;93394.88;;;15.06;52.69
9229;BME280;4649;42.644;23.284;2022-10-31T03:08:14;93569.41;;;16.07;54.27
9229;BME280;4649;42.644;23.284;2022-10-31T03:10:53;93589.81;;;16.00;53.56
9229;BME280;4649;42.644;23.284;2022-10-31T03:13:30;93501.53;;;15.50;53.17
9229;BME280;4649;42.644;23.284;2022-10-31T03:16:07;93480.78;;;15.42;53.24
9229;BME280;4649;42.644;23.284;2022-10-31T03:18:40;93484.66;;;15.28;54.35
9229;BME280;4649;42.644;23.284;2022-10-31T03:21:13;93446.22;;;15.02;55.61
9229;BME280;4649;42.644;23.284;2022-10-31T03:23:44;93471.13;;;15.12;55.54
9229;BME280;4649;42.644;23.284;2022-10-31T03:26:26;93577.06;;;15.84;54.93
9229;BME280;4649;42.644;23.284;2022-10-31T03:29:03;93538.09;;;15.66;53.87
9229;BME280;4649;42.644;23.284;2022-10-31T03:31:53;93507.72;;;15.51;53.93
9229;BME280;4649;42.644;23.284;2022-10-31T03:34:36;93462.44;;;15.13;54.73
9229;BME280;4649;42.644;23.284;2022-10-31T03:37:10;93598.09;;;15.95;54.42
9229;BME280;4649;42.644;23.284;2022-10-31T03:39:44;93489.06;;;15.31;54.46
9229;BME280;4649;42.644;23.284;2022-10-31T03:42:17;93577.94;;;15.98;53.68
9229;BME280;4649;42.644;23.284;2022-10-31T03:44:49;93427.00;;;14.89;53.38
9229;BME280;4649;42.644;23.284;2022-10-31T03:47:29;93577.75;;;15.90;53.41
9229;BME280;4649;42.644;23.284;2022-10-31T03:50:13;93437.56;;;14.98;53.73
9229;BME280;4649;42.644;23.284;2022-10-31T03:52:45;93412.09;;;14.90;53.19
9229;BME280;4649;42.644;23.284;2022-10-31T03:55:18;93520.56;;;15.56;53.73
9229;BME280;4649;42.644;23.284;2022-10-31T03:57:52;93418.34;;;14.85;54.48
9229;BME280;4649;42.644;23.284;2022-10-31T04:00:25;93448.41;;;15.04;54.22
9229;BME280;4649;42.644;23.284;2022-10-31T04:03:11;93553.94;;;15.67;55.07
9229;BME280;4649;42.644;23.284;2022-10-31T04:05:46;93604.03;;;15.93;55.12
9229;BME280;4649;42.644;23.284;2022-10-31T04:08:20;93593.06;;;15.75;56.91
9229;BME280;4649;42.644;23.284;2022-10-31T04:10:52;93540.88;;;15.31;56.56
9229;BME280;4649;42.644;23.284;2022-10-31T04:13:25;93472.13;;;14.85;56.90
9229;BME280;4649;42.644;23.284;2022-10-31T04:15:57;93424.22;;;14.36;57.51
9229;BME280;4649;42.644;23.284;2022-10-31T04:18:26;93539.81;;;15.10;59.15
9229;BME280;4649;42.644;23.284;2022-10-31T04:21:03;93583.28;;;15.32;57.75
9229;BME280;4649;42.644;23.284;2022-10-31T04:23:39;93601.22;;;15.51;58.39
9229;BME280;4649;42.644;23.284;2022-10-31T04:26:15;93609.72;;;15.42;59.14
9229;BME280;4649;42.644;23.284;2022-10-31T04:28:54;93424.34;;;14.20;58.79
9229;BME280;4649;42.644;23.284;2022-10-31T04:31:22;93611.94;;;15.44;59.03
9229;BME280;4649;42.644;23.284;2022-10-31T04:33:54;93527.34;;;14.91;59.49
9229;BME280;4649;42.644;23.284;2022-10-31T04:36:40;93485.19;;;14.63;58.49
9229;BME280;4649;42.644;23.284;2022-10-31T04:39:22;93619.13;;;15.47;59.66
9229;BME280;4649;42.644;23.284;2022-10-31T04:41:50;93455.41;;;14.35;59.60
9229;BME280;4649;42.644;23.284;2022-10-31T04:44:18;93488.41;;;14.61;58.99
9229;BME280;4649;42.644;23.284;2022-10-31T04:46:50;93617.38;;;15.49;59.46
9229;BME280;4649;42.644;23.284;2022-10-31T04:49:19;93616.66;;;15.43;60.24
9229;BME280;4649;42.644;23.284;2022-10-31T04:54:51;93559.69;;;15.05;59.52
9229;BME280;4649;42.644;23.284;2022-10-31T04:59:47;93600.72;;;15.18;61.57
9229;BME280;4649;42.644;23.284;2022-10-31T05:02:16;93531.19;;;14.71;60.54
9229;BME280;4649;42.644;23.284;2022-10-31T05:04:44;93523.34;;;14.63;63.09
9229;BME280;4649;42.644;23.284;2022-10-31T05:10:39;93445.91;;;14.18;60.60
9229;BME280;4649;42.644;23.284;2022-10-31T05:13:21;93651.63;;;15.45;60.72
9229;BME280;4649;42.644;23.284;2022-10-31T05:15:51;93642.00;;;15.68;60.10
9229;BME280;4649;42.644;23.284;2022-10-31T05:18:18;93604.16;;;15.83;58.84
9229;BME280;4649;42.644;23.284;2022-10-31T05:20:45;93489.97;;;15.86;57.70
9229;BME280;4649;42.644;23.284;2022-10-31T05:23:13;93521.91;;;16.70;55.00
9229;BME280;4649;42.644;23.284;2022-10-31T05:25:41;93651.34;;;17.90;52.82
9229;BME280;4649;42.644;23.284;2022-10-31T05:28:08;93640.22;;;18.01;52.46
9229;BME280;4649;42.644;23.284;2022-10-31T05:30:35;93641.34;;;17.93;52.12
9229;BME280;4649;42.644;23.284;2022-10-31T05:33:05;93643.66;;;17.89;52.45
9229;BME280;4649;42.644;23.284;2022-10-31T05:35:49;93632.03;;;17.70;52.66
9229;BME280;4649;42.644;23.284;2022-10-31T05:38:16;93549.63;;;16.93;53.20
9229;BME280;4649;42.644;23.284;2022-10-31T05:40:47;93636.84;;;17.33;54.04
9229;BME280;4649;42.644;23.284;2022-10-31T05:43:14;93556.41;;;16.55;54.70
9229;BME280;4649;42.644;23.284;2022-10-31T05:45:43;93660.53;;;17.12;55.56
9229;BME280;4649;42.644;23.284;2022-10-31T05:48:11;93539.16;;;16.23;55.34
9229;BME280;4649;42.644;23.284;2022-10-31T05:50:38;93607.88;;;16.69;56.08
9229;BME280;4649;42.644;23.284;2022-10-31T05:53:07;93659.69;;;17.35;57.29
9229;BME280;4649;42.644;23.284;2022-10-31T05:55:34;93634.09;;;18.08;54.26
9229;BME280;4649;42.644;23.284;2022-10-31T05:58:02;93635.44;;;19.38;50.06
9229;BME280;4649;42.644;23.284;2022-10-31T06:00:29;93569.81;;;20.44;46.43
9229;BME280;4649;42.644;23.284;2022-10-31T06:02:59;93653.13;;;22.76;41.99
9229;BME280;4649;42.644;23.284;2022-10-31T06:05:30;93585.88;;;23.99;37.57
9229;BME280;4649;42.644;23.284;2022-10-31T06:07:58;93662.09;;;25.93;34.93
9229;BME280;4649;42.644;23.284;2022-10-31T06:10:25;93671.72;;;27.08;32.31
9229;BME280;4649;42.644;23.284;2022-10-31T06:12:53;93674.31;;;28.10;30.65
9229;BME280;4649;42.644;23.284;2022-10-31T06:15:22;93587.84;;;28.48;28.50
9229;BME280;4649;42.644;23.284;2022-10-31T06:17:57;93682.47;;;29.80;27.50
9229;BME280;4649;42.644;23.284;2022-10-31T06:20:24;93681.28;;;30.27;26.90
9229;BME280;4649;42.644;23.284;2022-10-31T06:22:51;93678.72;;;31.34;24.96
9229;BME280;4649;42.644;23.284;2022-10-31T06:25:18;93670.69;;;31.40;24.42
9229;BME280;4649;42.644;23.284;2022-10-31T06:27:45;93670.91;;;32.16;23.74
9229;BME280;4649;42.644;23.284;2022-10-31T06:30:12;93667.84;;;32.75;22.71
9229;BME280;4649;42.644;23.284;2022-10-31T06:32:41;93679.91;;;33.31;21.94
9229;BME280;4649;42.644;23.284;2022-10-31T06:35:08;93702.69;;;33.37;21.79
9229;BME280;4649;42.644;23.284;2022-10-31T06:37:35;93704.66;;;33.08;22.02
9229;BME280;4649;42.644;23.284;2022-10-31T06:40:02;93568.16;;;32.20;21.85
9229;BME280;4649;42.644;23.284;2022-10-31T06:42:29;93694.69;;;33.32;21.22
9229;BME280;4649;42.644;23.284;2022-10-31T06:44:56;93703.50;;;33.80;20.81
9229;BME280;4649;42.644;23.284;2022-10-31T06:47:23;93707.00;;;34.51;20.21
9229;BME280;4649;42.644;23.284;2022-10-31T06:49:52;93687.81;;;34.32;19.87
9229;BME280;4649;42.644;23.284;2022-10-31T06:52:21;93713.16;;;34.19;20.55
9229;BME280;4649;42.644;23.284;2022-10-31T06:54:49;93701.22;;;34.05;20.48
9229;BME280;4649;42.644;23.284;2022-10-31T06:57:15;93710.84;;;34.58;20.30
9229;BME280;4649;42.644;23.284;2022-10-31T06:59:42;93671.47;;;35.04;19.54
9229;BME280;4649;42.644;23.284;2022-10-31T07:02:09;93687.38;;;35.93;18.99
9229;BME280;4649;42.644;23.284;2022-10-31T07:04:37;93694.34;;;36.79;17.89
9229;BME280;4649;42.644;23.284;2022-10-31T07:07:05;93714.75;;;36.78;17.81
9229;BME280;4649;42.644;23.284;2022-10-31T07:09:32;93707.31;;;36.86;17.42
9229;BME280;4649;42.644;23.284;2022-10-31T07:11:58;93705.44;;;36.39;17.92
9229;BME280;4649;42.644;23.284;2022-10-31T07:14:26;93638.94;;;35.49;18.05
9229;BME280;4649;42.644;23.284;2022-10-31T07:16:53;93633.44;;;35.35;18.65
9229;BME280;4649;42.644;23.284;2022-10-31T07:19:20;93711.28;;;35.92;18.18
9229;BME280;4649;42.644;23.284;2022-10-31T07:21:47;93714.59;;;36.04;17.92
9229;BME280;4649;42.644;23.284;2022-10-31T07:24:16;93705.38;;;35.54;19.24
9229;BME280;4649;42.644;23.284;2022-10-31T07:26:42;93683.34;;;36.16;17.97
9229;BME280;4649;42.644;23.284;2022-10-31T07:29:11;93682.06;;;36.54;17.70
9229;BME280;4649;42.644;23.284;2022-10-31T07:31:38;93703.75;;;37.22;17.39
9229;BME280;4649;42.644;23.284;2022-10-31T07:34:05;93670.47;;;37.02;17.49
9229;BME280;4649;42.644;23.284;2022-10-31T07:36:32;93694.63;;;37.05;17.77
9229;BME280;4649;42.644;23.284;2022-10-31T07:38:59;93643.09;;;37.64;16.80
9229;BME280;4649;42.644;23.284;2022-10-31T07:41:29;93649.38;;;37.82;16.90
9229;BME280;4649;42.644;23.284;2022-10-31T07:43:55;93693.19;;;38.24;16.45
9229;BME280;4649;42.644;23.284;2022-10-31T07:46:22;93628.94;;;38.96;15.26
9229;BME280;4649;42.644;23.284;2022-10-31T07:48:49;93679.09;;;39.15;15.70
9229;BME280;4649;42.644;23.284;2022-10-31T07:51:16;93691.28;;;39.45;15.20
9229;BME280;4649;42.644;23.284;2022-10-31T07:53:42;93676.31;;;39.17;15.80
9229;BME280;4649;42.644;23.284;2022-10-31T07:56:09;93619.31;;;39.05;15.18
9229;BME280;4649;42.644;23.284;2022-10-31T07:58:38;93692.69;;;38.97;15.74
9229;BME280;4649;42.644;23.284;2022-10-31T08:01:05;93687.28;;;38.37;16.11
9229;BME280;4649;42.644;23.284;2022-10-31T08:03:31;93693.69;;;37.76;16.59
9229;BME280;4649;42.644;23.284;2022-10-31T08:05:58;93701.88;;;37.29;16.99
9229;BME280;4649;42.644;23.284;2022-10-31T08:08:25;93707.97;;;38.01;16.80
9229;BME280;4649;42.644;23.284;2022-10-31T08:10:53;93659.75;;;37.97;16.11
9229;BME280;4649;42.644;23.284;2022-10-31T08:13:20;93707.25;;;38.43;16.32
9229;BME280;4649;42.644;23.284;2022-10-31T08:15:48;93682.22;;;38.78;15.50
9229;BME280;4649;42.644;23.284;2022-10-31T08:18:17;93698.00;;;38.85;15.85
9229;BME280;4649;42.644;23.284;2022-10-31T08:20:44;93708.28;;;39.70;15.25
9229;BME280;4649;42.644;23.284;2022-10-31T08:23:12;93637.31;;;39.41;15.19
9229;BME280;4649;42.644;23.284;2022-10-31T08:25:39;93601.75;;;38.62;15.21
9229;BME280;4649;42.644;23.284;2022-10-31T08:28:08;93700.78;;;39.07;15.56
9229;BME280;4649;42.644;23.284;2022-10-31T08:30:37;93702.28;;;39.58;15.43
9229;BME280;4649;42.644;23.284;2022-10-31T08:33:09;93699.03;;;40.22;15.04
9229;BME280;4649;42.644;23.284;2022-10-31T08:35:36;93701.84;;;40.20;14.82
9229;BME280;4649;42.644;23.284;2022-10-31T08:38:03;93702.44;;;40.44;14.26
9229;BME280;4649;42.644;23.284;2022-10-31T08:40:32;93679.66;;;39.85;14.79
9229;BME280;4649;42.644;23.284;2022-10-31T08:43:01;93704.16;;;40.00;15.38
9229;BME280;4649;42.644;23.284;2022-10-31T08:45:30;93708.03;;;40.13;14.93
9229;BME280;4649;42.644;23.284;2022-10-31T08:47:58;93702.06;;;39.27;16.17
9229;BME280;4649;42.644;23.284;2022-10-31T08:50:27;93700.91;;;39.84;15.44
9229;BME280;4649;42.644;23.284;2022-10-31T08:52:59;93705.56;;;41.16;13.98
9229;BME280;4649;42.644;23.284;2022-10-31T08:55:26;93706.53;;;40.98;14.69
9229;BME280;4649;42.644;23.284;2022-10-31T08:57:55;93631.06;;;40.89;13.61
9229;BME280;4649;42.644;23.284;2022-10-31T09:00:22;93679.81;;;40.48;14.65
9229;BME280;4649;42.644;23.284;2022-10-31T09:02:55;93688.25;;;41.04;14.24
9229;BME280;4649;42.644;23.284;2022-10-31T09:05:21;93701.66;;;42.04;13.47
9229;BME280;4649;42.644;23.284;2022-10-31T09:07:50;93698.19;;;42.48;12.96
9229;BME280;4649;42.644;23.284;2022-10-31T09:10:16;93648.72;;;41.87;13.40
9229;BME280;4649;42.644;23.284;2022-10-31T09:12:43;93697.53;;;42.13;13.31
9229;BME280;4649;42.644;23.284;2022-10-31T09:15:12;93690.38;;;41.72;13.90
9229;BME280;4649;42.644;23.284;2022-10-31T09:17:39;93681.88;;;42.12;13.19
9229;BME280;4649;42.644;23.284;2022-10-31T09:20:12;93694.38;;;41.95;13.25
9229;BME280;4649;42.644;23.284;2022-10-31T09:22:39;93689.16;;;40.82;15.23
9229;BME280;4649;42.644;23.284;2022-10-31T09:25:07;93607.16;;;41.00;13.74
9229;BME280;4649;42.644;23.284;2022-10-31T09:27:34;93679.25;;;40.83;13.83
9229;BME280;4649;42.644;23.284;2022-10-31T09:30:01;93699.38;;;40.34;14.93
9229;BME280;4649;42.644;23.284;2022-10-31T09:32:28;93673.72;;;40.30;14.91
9229;BME280;4649;42.644;23.284;2022-10-31T09:34:55;93638.16;;;39.72;14.27
9229;BME280;4649;42.644;23.284;2022-10-31T09:37:22;93693.88;;;40.15;15.55
9229;BME280;4649;42.644;23.284;2022-10-31T09:39:49;93675.22;;;40.33;15.42
9229;BME280;4649;42.644;23.284;2022-10-31T09:42:29;93693.88;;;39.87;17.15
9229;BME280;4649;42.644;23.284;2022-10-31T09:45:06;93689.28;;;41.19;14.13
9229;BME280;4649;42.644;23.284;2022-10-31T09:47:42;93634.19;;;40.38;14.18
9229;BME280;4649;42.644;23.284;2022-10-31T09:50:25;93644.78;;;40.67;13.72
9229;BME280;4649;42.644;23.284;2022-10-31T09:53:00;93693.38;;;40.81;14.55
9229;BME280;4649;42.644;23.284;2022-10-31T09:55:31;93698.47;;;40.57;14.28
9229;BME280;4649;42.644;23.284;2022-10-31T09:58:03;93688.47;;;39.97;14.84
9229;BME280;4649;42.644;23.284;2022-10-31T10:00:30;93687.19;;;40.30;14.74
9229;BME280;4649;42.644;23.284;2022-10-31T10:03:04;93606.31;;;40.01;14.68
9229;BME280;4649;42.644;23.284;2022-10-31T10:05:41;93656.91;;;40.40;14.08
9229;BME280;4649;42.644;23.284;2022-10-31T10:08:14;93679.09;;;38.04;16.30
9229;BME280;4649;42.644;23.284;2022-10-31T10:10:49;93683.84;;;35.78;18.25
9229;BME280;4649;42.644;23.284;2022-10-31T10:13:39;93621.34;;;38.33;16.11
9229;BME280;4649;42.644;23.284;2022-10-31T10:16:31;93670.88;;;39.25;15.58
9229;BME280;4649;42.644;23.284;2022-10-31T10:19:16;93670.75;;;39.72;14.58
9229;BME280;4649;42.644;23.284;2022-10-31T10:21:50;93666.72;;;40.35;14.78
9229;BME280;4649;42.644;23.284;2022-10-31T10:24:46;93666.16;;;40.70;13.70
9229;BME280;4649;42.644;23.284;2022-10-31T10:27:21;93669.13;;;39.90;15.17
9229;BME280;4649;42.644;23.284;2022-10-31T10:29:58;93602.56;;;40.22;15.63
9229;BME280;4649;42.644;23.284;2022-10-31T10:32:31;93654.19;;;41.06;14.38
9229;BME280;4649;42.644;23.284;2022-10-31T10:35:07;93650.69;;;41.80;13.60
9229;BME280;4649;42.644;23.284;2022-10-31T10:37:40;93634.88;;;41.69;12.70
9229;BME280;4649;42.644;23.284;2022-10-31T10:40:13;93579.22;;;40.88;13.33
9229;BME280;4649;42.644;23.284;2022-10-31T10:42:45;93644.00;;;40.96;13.31
9229;BME280;4649;42.644;23.284;2022-10-31T10:45:32;93648.47;;;40.42;13.94
9229;BME280;4649;42.644;23.284;2022-10-31T10:48:23;93636.88;;;39.77;15.46
9229;BME280;4649;42.644;23.284;2022-10-31T10:50:53;93636.03;;;39.20;14.46
9229;BME280;4649;42.644;23.284;2022-10-31T10:53:41;93642.34;;;38.70;15.64
9229;BME280;4649;42.644;23.284;2022-10-31T10:56:34;93605.19;;;37.71;15.29
9229;BME280;4649;42.644;23.284;2022-10-31T10:59:02;93608.09;;;36.57;15.83
9229;BME280;4649;42.644;23.284;2022-10-31T11:01:31;93604.69;;;35.54;17.77
9229;BME280;4649;42.644;23.284;2022-10-31T11:03:58;93643.38;;;35.54;18.29
9229;BME280;4649;42.644;23.284;2022-10-31T11:06:25;93602.59;;;35.22;17.70
9229;BME280;4649;42.644;23.284;2022-10-31T11:08:52;93640.97;;;34.98;17.59
9229;BME280;4649;42.644;23.284;2022-10-31T11:11:29;93637.97;;;34.04;18.55
9229;BME280;4649;42.644;23.284;2022-10-31T11:14:00;93636.66;;;33.49;19.56
9229;BME280;4649;42.644;23.284;2022-10-31T11:16:34;93573.09;;;33.14;20.26
9229;BME280;4649;42.644;23.284;2022-10-31T11:19:07;93629.81;;;33.26;21.06
9229;BME280;4649;42.644;23.284;2022-10-31T11:21:35;93628.59;;;33.02;20.32
9229;BME280;4649;42.644;23.284;2022-10-31T11:24:03;93555.16;;;32.52;21.34
9229;BME280;4649;42.644;23.284;2022-10-31T11:26:30;93617.06;;;32.82;20.83
9229;BME280;4649;42.644;23.284;2022-10-31T11:28:57;93535.94;;;31.95;20.79
9229;BME280;4649;42.644;23.284;2022-10-31T11:31:25;93590.53;;;31.69;22.49
9229;BME280;4649;42.644;23.284;2022-10-31T11:33:57;93586.56;;;31.24;21.93
9229;BME280;4649;42.644;23.284;2022-10-31T11:36:27;93532.00;;;30.53;22.80
9229;BME280;4649;42.644;23.284;2022-10-31T11:38:54;93596.88;;;30.85;22.44
9229;BME280;4649;42.644;23.284;2022-10-31T11:41:25;93606.59;;;30.62;23.25
9229;BME280;4649;42.644;23.284;2022-10-31T11:43:56;93580.09;;;30.17;23.25
9229;BME280;4649;42.644;23.284;2022-10-31T11:46:35;93605.09;;;30.04;23.22
9229;BME280;4649;42.644;23.284;2022-10-31T11:49:11;93603.81;;;29.72;24.25
9229;BME280;4649;42.644;23.284;2022-10-31T11:51:39;93595.47;;;29.52;24.10
9229;BME280;4649;42.644;23.284;2022-10-31T11:54:19;93598.09;;;29.38;24.62
9229;BME280;4649;42.644;23.284;2022-10-31T11:56:46;93597.22;;;29.15;24.99
9229;BME280;4649;42.644;23.284;2022-10-31T11:59:25;93595.78;;;29.14;25.16
9229;BME280;4649;42.644;23.284;2022-10-31T12:01:55;93599.25;;;28.82;26.25
9229;BME280;4649;42.644;23.284;2022-10-31T12:04:37;93592.41;;;28.74;25.33
9229;BME280;4649;42.644;23.284;2022-10-31T12:07:06;93581.16;;;28.41;25.84
9229;BME280;4649;42.644;23.284;2022-10-31T12:09:34;93589.50;;;28.41;27.81
9229;BME280;4649;42.644;23.284;2022-10-31T12:15:18;93498.09;;;27.68;26.31
9229;BME280;4649;42.644;23.284;2022-10-31T12:17:52;93544.63;;;27.77;26.20
9229;BME280;4649;42.644;23.284;2022-10-31T12:20:29;93560.78;;;27.69;26.41
9229;BME280;4649;42.644;23.284;2022-10-31T12:23:08;93588.31;;;27.65;26.35
9229;BME280;4649;42.644;23.284;2022-10-31T12:25:44;93580.09;;;27.67;27.04
9229;BME280;4649;42.644;23.284;2022-10-31T12:28:45;93573.84;;;27.57;26.90
9229;BME280;4649;42.644;23.284;2022-10-31T12:31:34;93581.28;;;27.64;27.21
9229;BME280;4649;42.644;23.284;2022-10-31T12:34:25;93571.19;;;27.40;27.73
9229;BME280;4649;42.644;23.284;2022-10-31T12:37:03;93568.56;;;27.33;28.29
9229;BME280;4649;42.644;23.284;2022-10-31T12:39:40;93583.94;;;27.43;27.73
9229;BME280;4649;42.644;23.284;2022-10-31T12:42:19;93536.72;;;27.06;28.30
9229;BME280;4649;42.644;23.284;2022-10-31T12:45:13;93577.38;;;27.10;28.31
9229;BME280;4649;42.644;23.284;2022-10-31T12:47:55;93540.03;;;26.38;29.86
9229;BME280;4649;42.644;23.284;2022-10-31T12:50:34;93576.88;;;26.48;28.42
9229;BME280;4649;42.644;23.284;2022-10-31T12:53:17;93568.22;;;25.99;30.20
9229;BME280;4649;42.644;23.284;2022-10-31T12:55:55;93547.88;;;25.78;30.05
9229;BME280;4649;42.644;23.284;2022-10-31T12:58:29;93585.06;;;25.75;30.78
9229;BME280;4649;42.644;23.284;2022-10-31T13:01:09;93511.44;;;24.95;30.96
9229;BME280;4649;42.644;23.284;2022-10-31T13:03:46;93550.97;;;24.95;30.99
9229;BME280;4649;42.644;23.284;2022-10-31T13:06:18;93500.00;;;24.14;32.04
9229;BME280;4649;42.644;23.284;2022-10-31T13:08:50;93463.66;;;23.28;33.35
9229;BME280;4649;42.644;23.284;2022-10-31T13:11:21;93588.63;;;23.75;33.22
9229;BME280;4649;42.644;23.284;2022-10-31T13:13:54;93590.44;;;23.48;33.92
9229;BME280;4649;42.644;23.284;2022-10-31T13:16:24;93563.75;;;23.43;34.38
9229;BME280;4649;42.644;23.284;2022-10-31T13:18:55;93582.97;;;23.65;33.88
9229;BME280;4649;42.644;23.284;2022-10-31T13:21:37;93576.41;;;23.53;34.27
9229;BME280;4649;42.644;23.284;2022-10-31T13:24:16;93573.00;;;23.38;34.92
9229;BME280;4649;42.644;23.284;2022-10-31T13:26:50;93583.47;;;23.39;35.37
9229;BME280;4649;42.644;23.284;2022-10-31T13:29:21;93547.31;;;23.21;35.26
9229;BME280;4649;42.644;23.284;2022-10-31T13:31:51;93576.09;;;23.42;34.64
9229;BME280;4649;42.644;23.284;2022-10-31T13:34:23;93584.03;;;23.38;35.38
9229;BME280;4649;42.644;23.284;2022-10-31T13:36:59;93584.56;;;23.44;36.03
9229;BME280;4649;42.644;23.284;2022-10-31T13:39:41;93568.91;;;23.46;35.84
9229;BME280;4649;42.644;23.284;2022-10-31T13:42:17;93554.50;;;23.48;35.09
9229;BME280;4649;42.644;23.284;2022-10-31T13:44:45;93580.09;;;23.80;34.25
9229;BME280;4649;42.644;23.284;2022-10-31T13:47:24;93559.66;;;23.51;34.15
9229;BME280;4649;42.644;23.284;2022-10-31T13:49:52;93589.44;;;23.60;34.45
9229;BME280;4649;42.644;23.284;2022-10-31T13:52:29;93579.00;;;23.51;35.10
9229;BME280;4649;42.644;23.284;2022-10-31T13:54:57;93575.56;;;23.43;35.01